createdAt,value
2019-02-23T00:01:04.930Z,-0.93
2019-02-23T00:03:35.888Z,-0.93
2019-02-23T00:06:06.608Z,-1.00
2019-02-23T00:08:37.164Z,-1.05
2019-02-23T00:11:07.833Z,-1.02
2019-02-23T00:13:38.945Z,-0.94
2019-02-23T00:16:09.766Z,-0.86
2019-02-23T00:18:41.253Z,-0.82
2019-02-23T00:21:14.442Z,-0.83
2019-02-23T00:23:45.056Z,-0.88
2019-02-23T00:26:15.866Z,-0.94
2019-02-23T00:28:46.475Z,-0.86
2019-02-23T00:31:17.965Z,-0.84
2019-02-23T00:33:48.985Z,-0.87
2019-02-23T00:36:19.623Z,-0.88
2019-02-23T00:38:50.295Z,-0.87
2019-02-23T00:41:21.365Z,-0.89
2019-02-23T00:43:51.953Z,-1.01
2019-02-23T00:46:23.021Z,-1.03
2019-02-23T00:48:53.555Z,-1.00
2019-02-23T00:51:24.238Z,-1.02
2019-02-23T00:53:55.008Z,-1.01
2019-02-23T00:56:25.736Z,-0.97
2019-02-23T00:58:56.298Z,-0.96
2019-02-23T01:01:27.380Z,-0.97
2019-02-23T01:03:58.087Z,-0.91
2019-02-23T01:06:28.670Z,-0.79
2019-02-23T01:09:00.567Z,-0.72
2019-02-23T01:11:31.156Z,-0.70
2019-02-23T01:14:01.703Z,-0.74
2019-02-23T01:16:34.839Z,-0.65
2019-02-23T01:19:05.649Z,-0.54
2019-02-23T01:21:36.245Z,-0.52
2019-02-23T01:24:06.877Z,-0.46
2019-02-23T01:26:37.697Z,-0.45
2019-02-23T01:29:08.602Z,-0.43
2019-02-23T01:31:39.326Z,-0.49
2019-02-23T01:34:11.341Z,-0.46
2019-02-23T01:36:42.951Z,-0.65
2019-02-23T01:39:14.507Z,-0.73
2019-02-23T01:41:45.303Z,-0.54
2019-02-23T01:44:16.137Z,-0.58
2019-02-23T01:46:47.003Z,-0.65
2019-02-23T01:49:17.676Z,-0.79
2019-02-23T01:51:48.340Z,-0.86
2019-02-23T01:54:19.123Z,-0.87
2019-02-23T01:56:49.788Z,-0.98
2019-02-23T01:59:20.270Z,-1.07
2019-02-23T02:01:50.903Z,-0.88
2019-02-23T02:04:21.527Z,-0.69
2019-02-23T02:06:52.142Z,-0.80
2019-02-23T02:09:25.953Z,-0.69
2019-02-23T02:11:57.257Z,-0.71
2019-02-23T02:14:27.909Z,-0.68
2019-02-23T02:16:58.459Z,-0.76
2019-02-23T02:19:29.219Z,-0.77
2019-02-23T02:22:00.341Z,-0.80
2019-02-23T02:24:31.478Z,-0.85
2019-02-23T02:27:02.061Z,-0.92
2019-02-23T02:29:32.814Z,-0.98
2019-02-23T02:32:03.362Z,-0.93
2019-02-23T02:34:34.055Z,-0.96
2019-02-23T02:37:04.901Z,-1.13
2019-02-23T02:39:35.577Z,-1.20
2019-02-23T02:42:06.193Z,-1.25
2019-02-23T02:44:37.442Z,-1.26
2019-02-23T02:47:08.097Z,-1.40
2019-02-23T02:49:38.748Z,-1.37
2019-02-23T02:52:09.406Z,-1.48
2019-02-23T02:54:40.454Z,-1.60
2019-02-23T02:57:11.232Z,-1.59
2019-02-23T02:59:41.840Z,-1.59
2019-02-23T03:02:13.113Z,-1.70
2019-02-23T03:04:43.842Z,-1.79
2019-02-23T03:07:14.503Z,-1.83
2019-02-23T03:09:45.097Z,-1.80
2019-02-23T03:12:15.698Z,-1.83
2019-02-23T03:14:46.359Z,-1.89
2019-02-23T03:17:17.175Z,-1.92
2019-02-23T03:19:47.857Z,-1.95
2019-02-23T03:22:18.597Z,-1.97
2019-02-23T03:24:49.572Z,-2.04
2019-02-23T03:27:20.715Z,-2.15
2019-02-23T03:29:51.845Z,-2.14
2019-02-23T03:32:22.444Z,-2.14
2019-02-23T03:34:53.177Z,-2.11
2019-02-23T03:37:26.376Z,-2.23
2019-02-23T03:39:56.907Z,-2.14
2019-02-23T03:42:28.734Z,-2.10
2019-02-23T03:44:59.222Z,-2.11
2019-02-23T03:47:29.953Z,-2.13
2019-02-23T03:50:00.614Z,-2.15
2019-02-23T03:52:31.164Z,-2.14
2019-02-23T03:55:02.009Z,-2.16
2019-02-23T03:57:32.722Z,-2.15
2019-02-23T04:00:03.375Z,-2.17
2019-02-23T04:02:34.109Z,-2.18
2019-02-23T04:05:05.229Z,-2.17
2019-02-23T04:07:36.396Z,-2.21
2019-02-23T04:10:07.425Z,-2.25
2019-02-23T04:12:38.224Z,-2.35
2019-02-23T04:15:09.295Z,-2.42
2019-02-23T04:17:39.994Z,-2.37
2019-02-23T04:20:10.550Z,-2.41
2019-02-23T04:22:41.140Z,-2.39
2019-02-23T04:25:11.777Z,-2.42
2019-02-23T04:27:45.403Z,-2.39
2019-02-23T04:30:16.231Z,-2.43
2019-02-23T04:32:46.947Z,-2.54
2019-02-23T04:35:17.577Z,-2.58
2019-02-23T04:37:48.302Z,-2.54
2019-02-23T04:40:18.818Z,-2.53
2019-02-23T04:42:50.235Z,-2.56
2019-02-23T04:45:20.880Z,-2.58
2019-02-23T04:47:51.685Z,-2.60
2019-02-23T04:50:22.435Z,-2.60
2019-02-23T04:52:52.476Z,-2.60
2019-02-23T04:55:23.095Z,-2.68
2019-02-23T04:57:53.261Z,-2.63
2019-02-23T05:00:23.570Z,-2.68
2019-02-23T05:02:53.771Z,-2.65
2019-02-23T05:05:24.071Z,-2.66
2019-02-23T05:07:54.192Z,-2.70
2019-02-23T05:10:24.330Z,-2.67
2019-02-23T05:12:54.396Z,-2.80
2019-02-23T05:15:25.009Z,-2.77
2019-02-23T05:17:55.666Z,-2.86
2019-02-23T05:20:26.457Z,-2.85
2019-02-23T05:22:56.686Z,-2.88
2019-02-23T05:25:26.929Z,-2.90
2019-02-23T05:27:57.074Z,-2.90
2019-02-23T05:30:27.339Z,-2.88
2019-02-23T05:32:57.305Z,-2.85
2019-02-23T05:35:27.557Z,-2.94
2019-02-23T05:37:59.470Z,-2.97
2019-02-23T05:40:30.421Z,-3.04
2019-02-23T05:43:01.519Z,-3.05
2019-02-23T05:45:32.192Z,-3.00
2019-02-23T05:48:02.937Z,-3.00
2019-02-23T05:50:33.748Z,-2.96
2019-02-23T05:53:04.410Z,-2.94
2019-02-23T05:55:35.563Z,-2.86
2019-02-23T05:58:06.133Z,-2.87
2019-02-23T06:00:36.947Z,-2.76
2019-02-23T06:03:07.633Z,-2.74
2019-02-23T06:05:39.500Z,-2.83
2019-02-23T06:08:10.033Z,-2.82
2019-02-23T06:10:41.144Z,-2.85
2019-02-23T06:13:12.195Z,-2.79
2019-02-23T06:15:42.883Z,-2.75
2019-02-23T06:18:13.563Z,-2.75
2019-02-23T06:20:44.525Z,-2.74
2019-02-23T06:23:15.301Z,-2.65
2019-02-23T06:25:46.038Z,-2.59
2019-02-23T06:28:16.523Z,-2.53
2019-02-23T06:30:47.548Z,-2.46
2019-02-23T06:33:21.387Z,-2.27
2019-02-23T06:35:53.592Z,-2.13
2019-02-23T06:38:24.143Z,-1.86
2019-02-23T06:40:54.564Z,-1.88
2019-02-23T06:43:24.794Z,-1.69
2019-02-23T06:45:55.039Z,-1.69
2019-02-23T06:48:25.014Z,-1.52
2019-02-23T06:50:55.161Z,-1.31
2019-02-23T06:53:25.519Z,-1.14
2019-02-23T06:55:55.661Z,-0.83
2019-02-23T06:58:26.004Z,-0.49
2019-02-23T07:00:56.243Z,-0.31
2019-02-23T07:03:26.480Z,-0.31
2019-02-23T07:05:56.585Z,-0.19
2019-02-23T07:08:26.663Z,-0.09
2019-02-23T07:10:56.878Z,0.10
2019-02-23T07:13:27.011Z,0.26
2019-02-23T07:15:57.309Z,0.40
2019-02-23T07:18:27.493Z,0.67
2019-02-23T07:20:59.923Z,0.76
2019-02-23T07:23:30.056Z,1.05
2019-02-23T07:26:00.263Z,1.28
2019-02-23T07:28:30.958Z,1.63
2019-02-23T07:31:01.166Z,2.03
2019-02-23T07:33:33.058Z,2.29
2019-02-23T07:36:04.876Z,3.10
2019-02-23T07:38:35.713Z,3.58
2019-02-23T07:41:07.409Z,4.23
2019-02-23T07:43:38.087Z,4.57
2019-02-23T07:46:08.648Z,4.91
2019-02-23T07:48:41.166Z,5.60
2019-02-23T07:51:14.879Z,5.99
2019-02-23T07:53:45.915Z,5.99
2019-02-23T07:56:17.565Z,5.63
2019-02-23T07:58:48.309Z,5.45
2019-02-23T08:01:20.198Z,5.66
2019-02-23T08:03:51.070Z,6.31
2019-02-23T08:06:22.847Z,6.74
2019-02-23T08:08:55.995Z,6.58
2019-02-23T08:11:26.781Z,6.47
2019-02-23T08:13:58.512Z,6.69
2019-02-23T08:16:29.609Z,7.28
2019-02-23T08:19:03.770Z,7.64
2019-02-23T08:21:54.310Z,8.05
2019-02-23T08:24:26.348Z,7.58
2019-02-23T08:27:01.530Z,8.08
2019-02-23T08:29:33.190Z,8.49
2019-02-23T08:32:24.770Z,8.53
2019-02-23T08:34:56.042Z,8.93
2019-02-23T08:40:21.270Z,8.86
2019-02-23T08:42:54.882Z,9.03
2019-02-23T08:45:34.981Z,8.97
2019-02-23T08:48:09.400Z,8.90
2019-02-23T08:50:49.102Z,9.00
2019-02-23T08:53:20.454Z,9.49
2019-02-23T08:55:53.519Z,10.09
2019-02-23T08:58:25.386Z,10.47
2019-02-23T09:00:58.113Z,10.78
2019-02-23T09:03:32.235Z,11.12
2019-02-23T09:06:03.641Z,11.56
2019-02-23T09:08:36.776Z,11.74
2019-02-23T09:11:09.782Z,11.60
2019-02-23T09:13:41.092Z,11.76
2019-02-23T09:16:12.713Z,12.23
2019-02-23T09:18:45.054Z,12.50
2019-02-23T09:21:20.079Z,12.66
2019-02-23T09:23:51.472Z,12.27
2019-02-23T09:26:31.623Z,11.96
2019-02-23T09:29:03.086Z,11.19
2019-02-23T09:31:34.749Z,10.84
2019-02-23T09:34:06.374Z,10.69
2019-02-23T09:36:42.140Z,10.34
